createdAt,value
2019-03-27T00:00:44.066Z,12.60
2019-03-27T00:02:46.409Z,16.40
2019-03-27T00:04:48.773Z,18.82
2019-03-27T00:06:51.157Z,11.65
2019-03-27T00:08:53.410Z,11.90
2019-03-27T00:10:55.656Z,16.13
2019-03-27T00:12:58.096Z,15.85
2019-03-27T00:15:12.142Z,12.80
2019-03-27T00:17:04.477Z,10.00
2019-03-27T00:19:06.749Z,18.65
2019-03-27T00:21:09.510Z,11.35
2019-03-27T00:23:11.753Z,17.23
2019-03-27T00:25:14.143Z,11.68
2019-03-27T00:27:16.396Z,11.30
2019-03-27T00:29:18.686Z,9.80
2019-03-27T00:31:20.935Z,19.98
2019-03-27T00:33:23.193Z,16.93
2019-03-27T00:35:25.839Z,14.13
2019-03-27T00:37:28.105Z,16.35
2019-03-27T00:39:30.454Z,11.15
2019-03-27T00:41:32.813Z,22.85
2019-03-27T00:43:35.069Z,14.40
2019-03-27T00:45:37.422Z,17.75
2019-03-27T00:47:39.705Z,12.68
2019-03-27T00:49:42.068Z,12.18
2019-03-27T00:51:44.318Z,11.25
2019-03-27T00:53:46.673Z,11.75
2019-03-27T00:55:48.925Z,14.55
2019-03-27T00:57:51.177Z,16.37
2019-03-27T00:59:53.509Z,21.70
2019-03-27T01:01:55.762Z,12.80
2019-03-27T01:03:58.118Z,11.12
2019-03-27T01:06:00.477Z,16.93
2019-03-27T01:08:02.997Z,11.45
2019-03-27T01:10:06.021Z,16.17
2019-03-27T01:12:08.278Z,22.65
2019-03-27T01:14:10.523Z,19.30
2019-03-27T01:16:12.996Z,15.03
2019-03-27T01:18:15.275Z,15.65
2019-03-27T01:20:17.541Z,15.68
2019-03-27T01:22:19.793Z,12.82
2019-03-27T01:24:22.072Z,18.48
2019-03-27T01:26:24.333Z,10.88
2019-03-27T01:28:26.577Z,15.63
2019-03-27T01:30:28.845Z,15.38
2019-03-27T01:32:31.097Z,15.13
2019-03-27T01:34:33.470Z,16.87
2019-03-27T01:36:35.861Z,19.77
2019-03-27T01:38:38.221Z,14.58
2019-03-27T01:40:40.489Z,10.65
2019-03-27T01:42:42.745Z,18.12
2019-03-27T01:44:45.117Z,15.83
2019-03-27T01:46:47.364Z,18.98
2019-03-27T01:48:49.636Z,19.45
2019-03-27T01:50:51.901Z,22.10
2019-03-27T01:52:54.275Z,15.23
2019-03-27T01:54:56.529Z,24.27
2019-03-27T01:56:58.773Z,20.97
2019-03-27T01:59:01.054Z,19.70
2019-03-27T02:01:03.710Z,15.38
2019-03-27T02:03:05.972Z,22.95
2019-03-27T02:05:08.478Z,17.65
2019-03-27T02:07:10.733Z,20.85
2019-03-27T02:09:13.110Z,22.85
2019-03-27T02:11:15.423Z,24.75
2019-03-27T02:13:17.678Z,17.32
2019-03-27T02:15:20.033Z,21.45
2019-03-27T02:17:22.301Z,14.83
2019-03-27T02:19:24.656Z,18.10
2019-03-27T02:21:27.029Z,15.72
2019-03-27T02:23:29.306Z,23.18
2019-03-27T02:25:31.576Z,18.75
2019-03-27T02:27:34.000Z,16.65
2019-03-27T02:29:36.463Z,22.20
2019-03-27T02:31:38.735Z,21.65
2019-03-27T02:33:41.077Z,19.48
2019-03-27T02:35:43.459Z,24.10
2019-03-27T02:37:45.765Z,21.05
2019-03-27T02:39:48.145Z,20.52
2019-03-27T02:41:50.579Z,20.92
2019-03-27T02:43:52.831Z,27.02
2019-03-27T02:45:55.083Z,16.30
2019-03-27T02:47:57.373Z,21.75
2019-03-27T02:49:59.722Z,18.80
2019-03-27T02:52:01.976Z,18.05
2019-03-27T02:54:04.228Z,19.27
2019-03-27T02:56:06.500Z,17.40
2019-03-27T02:58:08.762Z,21.27
2019-03-27T03:00:11.630Z,17.23
2019-03-27T03:02:13.905Z,18.02
2019-03-27T03:04:16.250Z,25.82
2019-03-27T03:06:18.729Z,23.42
2019-03-27T03:08:21.206Z,17.77
2019-03-27T03:10:23.667Z,26.65
2019-03-27T03:12:26.009Z,21.00
2019-03-27T03:14:28.253Z,16.90
2019-03-27T03:16:42.122Z,19.07
2019-03-27T03:18:34.814Z,22.00
2019-03-27T03:20:37.065Z,24.60
2019-03-27T03:22:40.111Z,24.95
2019-03-27T03:24:42.384Z,27.80
2019-03-27T03:26:44.754Z,23.67
2019-03-27T03:28:47.007Z,28.15
2019-03-27T03:30:49.281Z,24.80
2019-03-27T03:32:51.746Z,26.25
2019-03-27T03:34:53.994Z,23.15
2019-03-27T03:36:56.266Z,22.17
2019-03-27T03:38:58.515Z,21.55
2019-03-27T03:41:01.170Z,28.45
2019-03-27T03:43:03.636Z,32.50
2019-03-27T03:45:06.447Z,24.12
2019-03-27T03:47:08.697Z,24.27
2019-03-27T03:49:10.976Z,29.63
2019-03-27T03:51:14.405Z,23.62
2019-03-27T03:53:16.893Z,23.45
2019-03-27T03:55:19.434Z,28.38
2019-03-27T03:57:24.102Z,26.10
2019-03-27T03:59:27.910Z,21.60
2019-03-27T04:01:33.668Z,25.60
2019-03-27T04:03:37.930Z,20.23
2019-03-27T04:05:40.197Z,24.20
2019-03-27T04:07:42.490Z,29.15
2019-03-27T04:09:44.964Z,17.55
2019-03-27T04:11:47.378Z,29.70
2019-03-27T04:13:49.643Z,21.68
2019-03-27T04:15:51.995Z,20.48
2019-03-27T04:17:54.258Z,19.87
2019-03-27T04:19:57.113Z,21.17
2019-03-27T04:21:59.420Z,24.27
2019-03-27T04:24:02.195Z,35.00
2019-03-27T04:26:10.305Z,20.65
2019-03-27T04:28:08.626Z,25.57
2019-03-27T04:30:11.294Z,23.18
2019-03-27T04:32:13.685Z,24.32
2019-03-27T04:34:15.941Z,27.77
2019-03-27T04:36:18.297Z,31.10
2019-03-27T04:38:20.583Z,32.95
2019-03-27T04:40:22.943Z,24.32
2019-03-27T04:42:25.196Z,25.60
2019-03-27T04:44:27.567Z,28.73
2019-03-27T04:46:29.813Z,25.20
2019-03-27T04:48:32.090Z,31.52
2019-03-27T04:50:34.477Z,27.77
2019-03-27T04:52:36.825Z,25.48
2019-03-27T04:54:39.077Z,31.65
2019-03-27T04:56:41.500Z,30.10
2019-03-27T04:58:43.753Z,24.52
2019-03-27T05:00:46.024Z,67.17
2019-03-27T05:02:48.329Z,28.62
2019-03-27T05:04:50.896Z,33.28
2019-03-27T05:06:53.153Z,22.90
2019-03-27T05:08:55.413Z,30.10
2019-03-27T05:10:57.677Z,20.77
2019-03-27T05:12:59.966Z,22.50
2019-03-27T05:15:02.525Z,21.27
2019-03-27T05:17:04.770Z,18.48
2019-03-27T05:19:07.172Z,21.33
2019-03-27T05:21:09.467Z,22.80
2019-03-27T05:23:11.732Z,27.42
2019-03-27T05:25:14.009Z,21.97
2019-03-27T05:27:16.261Z,22.55
2019-03-27T05:29:18.533Z,24.45
2019-03-27T05:31:20.813Z,18.40
2019-03-27T05:33:23.089Z,16.67
2019-03-27T05:35:25.556Z,19.02
2019-03-27T05:37:27.913Z,21.20
2019-03-27T05:39:30.166Z,22.67
2019-03-27T05:41:32.436Z,35.03
2019-03-27T05:43:34.723Z,26.62
2019-03-27T05:45:37.161Z,21.30
2019-03-27T05:47:39.540Z,17.27
2019-03-27T05:49:41.827Z,18.20
2019-03-27T05:51:44.156Z,22.20
2019-03-27T05:53:46.422Z,30.37
2019-03-27T05:55:48.798Z,22.42
2019-03-27T05:57:51.053Z,31.20
2019-03-27T05:59:53.325Z,16.45
2019-03-27T06:01:55.623Z,28.98
2019-03-27T06:03:57.866Z,22.82
2019-03-27T06:06:00.222Z,18.87
2019-03-27T06:08:02.490Z,21.87
2019-03-27T06:10:05.235Z,28.90
2019-03-27T06:12:07.485Z,32.33
2019-03-27T06:14:09.778Z,24.98
2019-03-27T06:16:12.242Z,28.52
2019-03-27T06:18:14.507Z,20.35
2019-03-27T06:20:20.345Z,29.52
2019-03-27T06:22:22.597Z,23.80
2019-03-27T06:24:24.862Z,23.95
2019-03-27T06:26:27.180Z,28.07
2019-03-27T06:28:29.453Z,23.38
2019-03-27T06:30:31.737Z,27.00
2019-03-27T06:32:34.573Z,58.63
2019-03-27T06:34:36.854Z,32.38
2019-03-27T06:36:39.198Z,26.17
2019-03-27T06:38:41.733Z,27.60
2019-03-27T06:40:44.057Z,22.35
2019-03-27T06:42:46.322Z,29.50
2019-03-27T06:44:48.609Z,23.03
2019-03-27T06:46:50.859Z,21.10
2019-03-27T06:48:53.118Z,23.62
2019-03-27T06:50:55.394Z,22.27
2019-03-27T06:52:57.853Z,22.87
2019-03-27T06:55:00.453Z,22.23
2019-03-27T06:57:02.858Z,23.67
2019-03-27T06:59:05.217Z,20.68
2019-03-27T07:01:07.660Z,25.60
2019-03-27T07:03:10.247Z,20.53
2019-03-27T07:05:12.693Z,20.20
2019-03-27T07:07:14.971Z,24.93
2019-03-27T07:09:17.256Z,25.45
2019-03-27T07:11:19.604Z,22.37
2019-03-27T07:13:21.902Z,19.70
2019-03-27T07:15:24.329Z,21.77
2019-03-27T07:17:26.594Z,18.33
2019-03-27T07:19:28.866Z,18.60
2019-03-27T07:21:31.218Z,16.57
2019-03-27T07:23:33.514Z,16.90
2019-03-27T07:25:35.797Z,19.75
2019-03-27T07:27:38.478Z,23.80
2019-03-27T07:29:40.729Z,23.83
2019-03-27T07:31:43.050Z,16.65
2019-03-27T07:33:45.315Z,18.05
2019-03-27T07:35:47.618Z,17.23
2019-03-27T07:37:49.934Z,18.07
2019-03-27T07:39:52.197Z,16.80
2019-03-27T07:41:54.482Z,19.33
2019-03-27T07:43:56.762Z,19.23
2019-03-27T07:45:59.139Z,17.63
2019-03-27T07:48:01.417Z,20.10
2019-03-27T07:50:04.256Z,14.20
2019-03-27T07:52:06.776Z,11.73
2019-03-27T07:54:09.326Z,18.20
2019-03-27T07:56:11.626Z,13.60
2019-03-27T07:58:13.900Z,11.60
2019-03-27T08:00:17.165Z,17.83
2019-03-27T08:02:19.625Z,13.90
2019-03-27T08:04:21.893Z,13.67
2019-03-27T08:06:24.492Z,12.00
2019-03-27T08:08:26.774Z,12.33
2019-03-27T08:10:29.033Z,13.60
2019-03-27T08:12:31.302Z,12.37
2019-03-27T08:14:33.653Z,14.73
2019-03-27T08:16:35.966Z,13.63
2019-03-27T08:18:38.331Z,11.97
2019-03-27T08:20:40.873Z,9.40
2019-03-27T08:22:43.453Z,11.47
2019-03-27T08:24:47.419Z,10.13
2019-03-27T08:26:49.799Z,8.70
2019-03-27T08:28:52.104Z,7.97
2019-03-27T08:30:54.386Z,13.53
2019-03-27T08:32:56.645Z,8.40
2019-03-27T08:34:58.945Z,18.57
2019-03-27T08:37:01.218Z,12.57
2019-03-27T08:39:06.256Z,12.33
2019-03-27T08:41:08.640Z,10.87
2019-03-27T08:43:21.055Z,19.13
2019-03-27T08:45:15.597Z,7.70
2019-03-27T08:47:17.899Z,11.53
2019-03-27T08:49:22.263Z,8.97
2019-03-27T08:51:24.984Z,8.97
2019-03-27T08:53:27.358Z,6.53
2019-03-27T08:55:29.723Z,10.10
2019-03-27T08:57:32.300Z,9.43
2019-03-27T08:59:34.887Z,9.67
2019-03-27T09:01:37.234Z,11.67
2019-03-27T09:03:39.519Z,8.60
2019-03-27T09:05:41.945Z,15.47
2019-03-27T09:07:44.215Z,9.70
2019-03-27T09:09:46.490Z,10.10
2019-03-27T09:11:48.856Z,8.70
2019-03-27T09:13:51.118Z,13.00
2019-03-27T09:15:53.489Z,7.27
2019-03-27T09:17:55.844Z,16.10
2019-03-27T09:19:58.115Z,6.60
2019-03-27T09:22:00.535Z,9.73
2019-03-27T09:24:03.222Z,8.60
2019-03-27T09:26:05.481Z,11.77
2019-03-27T09:28:07.949Z,8.73
2019-03-27T09:30:11.021Z,9.47
2019-03-27T09:32:13.389Z,6.13
2019-03-27T09:34:17.668Z,6.20
2019-03-27T09:36:19.990Z,6.57
2019-03-27T09:38:22.250Z,9.13
2019-03-27T09:40:24.977Z,19.33
2019-03-27T09:42:27.231Z,8.67
2019-03-27T09:44:29.483Z,5.20
2019-03-27T09:46:31.783Z,8.27
2019-03-27T09:48:34.142Z,8.70
2019-03-27T09:50:36.506Z,8.07
2019-03-27T09:52:38.809Z,6.60
2019-03-27T09:54:41.156Z,10.03
2019-03-27T09:56:43.451Z,8.40
2019-03-27T09:58:45.746Z,14.07
2019-03-27T10:01:09.954Z,7.27
2019-03-27T10:03:12.221Z,7.80
2019-03-27T10:05:14.651Z,9.30
2019-03-27T10:07:17.263Z,7.87
2019-03-27T10:09:19.509Z,8.40
2019-03-27T10:11:23.821Z,13.53
2019-03-27T10:13:26.241Z,10.03
2019-03-27T10:15:28.654Z,8.60
2019-03-27T10:17:31.175Z,10.23
2019-03-27T10:19:33.571Z,16.27
2019-03-27T10:21:35.824Z,9.87
2019-03-27T10:23:38.371Z,7.70
2019-03-27T10:25:40.657Z,13.73
2019-03-27T10:27:43.033Z,9.47
2019-03-27T10:29:46.147Z,6.67
2019-03-27T10:31:48.406Z,8.67
2019-03-27T10:33:50.730Z,11.20
2019-03-27T10:35:53.111Z,8.10
2019-03-27T10:37:55.387Z,12.37
2019-03-27T10:39:57.637Z,9.40
2019-03-27T10:42:00.060Z,7.50
2019-03-27T10:44:02.611Z,7.03
2019-03-27T10:46:05.039Z,9.47
2019-03-27T10:48:07.416Z,8.87
2019-03-27T10:50:17.457Z,8.33
2019-03-27T10:52:14.457Z,9.47
2019-03-27T10:54:16.713Z,10.33
2019-03-27T10:56:18.983Z,7.73
2019-03-27T10:58:21.925Z,9.83
2019-03-27T11:00:24.180Z,14.40
2019-03-27T11:02:26.572Z,15.10
2019-03-27T11:04:28.857Z,9.30
2019-03-27T11:06:31.134Z,8.00
2019-03-27T11:08:33.524Z,19.30
2019-03-27T11:10:35.906Z,10.00
2019-03-27T11:12:38.256Z,10.60
2019-03-27T11:14:40.556Z,9.67
2019-03-27T11:16:42.900Z,7.57
2019-03-27T11:18:45.166Z,12.20
2019-03-27T11:20:47.454Z,6.67
2019-03-27T11:22:49.819Z,8.37
2019-03-27T11:24:52.109Z,11.30
2019-03-27T11:26:54.378Z,12.97
2019-03-27T11:28:56.629Z,8.77
2019-03-27T11:30:58.906Z,6.60
2019-03-27T11:33:01.176Z,7.10
2019-03-27T11:35:05.106Z,10.07
2019-03-27T11:37:07.371Z,8.73
2019-03-27T11:39:09.854Z,7.80
2019-03-27T11:41:12.486Z,7.07
2019-03-27T11:43:15.185Z,4.10
2019-03-27T11:45:17.805Z,5.20
2019-03-27T11:47:20.316Z,5.00
2019-03-27T11:49:22.977Z,9.77
2019-03-27T11:51:25.472Z,5.50
2019-03-27T11:53:28.309Z,9.17
2019-03-27T11:55:30.846Z,7.23
2019-03-27T11:57:33.667Z,9.13
2019-03-27T11:59:36.014Z,5.30
2019-03-27T12:01:42.055Z,5.00
2019-03-27T12:08:23.277Z,7.10
2019-03-27T12:10:25.548Z,6.57
2019-03-27T12:12:27.803Z,6.93
2019-03-27T12:14:30.062Z,7.63
2019-03-27T12:16:32.446Z,5.50
2019-03-27T12:18:34.806Z,7.83
2019-03-27T12:20:37.178Z,9.70
2019-03-27T12:22:39.847Z,10.63
2019-03-27T12:24:42.105Z,5.73
2019-03-27T12:26:44.339Z,5.40
2019-03-27T12:28:46.701Z,6.17
2019-03-27T12:30:48.946Z,7.30
2019-03-27T12:32:52.189Z,8.03
2019-03-27T12:34:55.305Z,8.13
2019-03-27T12:36:57.548Z,8.63
2019-03-27T12:38:59.801Z,5.00
2019-03-27T12:41:02.501Z,8.53
2019-03-27T12:43:04.981Z,5.80
2019-03-27T12:45:07.443Z,5.00
2019-03-27T12:47:09.963Z,7.13
2019-03-27T12:49:12.238Z,6.20
2019-03-27T12:51:17.373Z,5.10
2019-03-27T12:53:19.738Z,6.60
2019-03-27T12:55:22.133Z,6.80
2019-03-27T12:57:24.381Z,7.23
2019-03-27T12:59:26.733Z,6.20
2019-03-27T13:01:28.990Z,6.53
2019-03-27T13:03:31.237Z,5.90
2019-03-27T13:05:33.597Z,7.53
2019-03-27T13:07:49.102Z,6.07
2019-03-27T13:09:40.061Z,9.80
2019-03-27T13:11:42.569Z,6.27
2019-03-27T13:13:44.813Z,6.50
2019-03-27T13:15:47.066Z,6.63
2019-03-27T13:17:49.437Z,5.90
2019-03-27T13:19:51.956Z,5.80
2019-03-27T13:21:54.269Z,5.93
2019-03-27T13:23:56.561Z,9.40
2019-03-27T13:25:58.817Z,7.07
2019-03-27T13:28:01.061Z,7.30
2019-03-27T13:30:03.869Z,7.60
2019-03-27T13:32:06.205Z,8.80
2019-03-27T13:34:08.613Z,6.70
2019-03-27T13:36:10.977Z,7.53
2019-03-27T13:38:13.245Z,8.30
2019-03-27T13:40:16.296Z,7.70
2019-03-27T13:42:21.529Z,10.07
2019-03-27T13:44:36.320Z,7.20
2019-03-27T13:46:28.050Z,36.03
2019-03-27T13:48:31.608Z,11.23
2019-03-27T13:50:33.887Z,7.27
2019-03-27T13:52:36.229Z,8.27
2019-03-27T13:54:38.665Z,12.97
2019-03-27T13:56:41.002Z,7.70
2019-03-27T13:58:43.354Z,6.93
2019-03-27T14:00:45.630Z,8.43
2019-03-27T14:02:50.858Z,5.80
2019-03-27T14:04:53.201Z,7.37
2019-03-27T14:06:55.646Z,5.50
2019-03-27T14:08:57.916Z,6.23
2019-03-27T14:11:00.166Z,6.00
2019-03-27T14:13:02.558Z,5.30
2019-03-27T14:15:07.251Z,4.80
2019-03-27T14:17:09.514Z,5.60
2019-03-27T14:19:11.861Z,8.50
2019-03-27T14:21:14.121Z,5.47
2019-03-27T14:23:16.375Z,5.43
2019-03-27T14:25:21.942Z,6.17
2019-03-27T14:27:23.366Z,4.27
2019-03-27T14:29:25.637Z,4.30
2019-03-27T14:31:27.901Z,4.03
2019-03-27T14:33:31.066Z,5.37
2019-03-27T14:35:33.588Z,3.80
2019-03-27T14:37:38.905Z,4.00
2019-03-27T14:39:41.205Z,4.77
2019-03-27T14:41:43.839Z,4.03
2019-03-27T14:43:46.077Z,4.30
2019-03-27T14:45:48.780Z,5.23
2019-03-27T14:47:51.046Z,5.87
2019-03-27T14:49:53.301Z,4.60
2019-03-27T14:52:07.679Z,4.90
2019-03-27T14:53:59.918Z,4.17
2019-03-27T14:56:02.282Z,4.90
2019-03-27T14:58:04.549Z,5.40
2019-03-27T15:00:10.932Z,5.17
2019-03-27T15:02:13.488Z,5.63
2019-03-27T15:04:15.841Z,5.50
2019-03-27T15:06:18.226Z,4.77
2019-03-27T15:08:20.871Z,4.97
2019-03-27T15:10:23.220Z,6.50
2019-03-27T15:12:25.879Z,7.17
2019-03-27T15:14:28.158Z,6.60
2019-03-27T15:16:30.405Z,6.57
2019-03-27T15:18:32.896Z,5.40
2019-03-27T15:20:35.365Z,6.30
2019-03-27T15:22:37.621Z,6.60
2019-03-27T15:24:39.889Z,7.00
2019-03-27T15:26:42.164Z,7.37
2019-03-27T15:28:44.417Z,6.70
2019-03-27T15:30:46.705Z,8.03
2019-03-27T15:32:48.966Z,8.97
2019-03-27T15:34:51.233Z,7.30
2019-03-27T15:36:53.488Z,8.13
2019-03-27T15:38:55.744Z,7.57
2019-03-27T15:40:58.125Z,7.40
2019-03-27T15:43:00.442Z,7.97
2019-03-27T15:45:03.782Z,8.20
2019-03-27T15:47:06.133Z,7.97
2019-03-27T15:49:08.416Z,8.90
2019-03-27T15:51:10.658Z,8.60
2019-03-27T15:53:13.001Z,10.10
2019-03-27T15:55:15.490Z,9.90
2019-03-27T15:57:17.854Z,17.30
2019-03-27T15:59:20.200Z,16.87
2019-03-27T16:01:22.457Z,15.13
2019-03-27T16:03:24.705Z,14.87
2019-03-27T16:05:27.067Z,17.50
2019-03-27T16:07:31.295Z,13.50
2019-03-27T16:09:33.738Z,17.00
2019-03-27T16:11:36.005Z,15.50
2019-03-27T16:13:38.282Z,15.03
2019-03-27T16:15:40.648Z,17.13
2019-03-27T16:17:43.009Z,13.57
2019-03-27T16:19:45.455Z,22.83
2019-03-27T16:21:47.721Z,15.87
2019-03-27T16:23:49.982Z,13.10
2019-03-27T16:25:52.281Z,16.20
2019-03-27T16:27:54.653Z,13.43
2019-03-27T16:29:56.986Z,13.87
2019-03-27T16:31:59.297Z,11.20
2019-03-27T16:34:01.674Z,10.70
2019-03-27T16:36:03.966Z,13.73
2019-03-27T16:38:06.517Z,16.23
2019-03-27T16:40:09.097Z,13.80
2019-03-27T16:42:11.546Z,12.23
2019-03-27T16:44:15.985Z,12.03
2019-03-27T16:46:18.330Z,11.10
2019-03-27T16:48:20.793Z,13.13
2019-03-27T16:50:23.190Z,16.80
2019-03-27T16:52:25.606Z,11.97
2019-03-27T16:54:27.940Z,16.27
2019-03-27T16:56:30.355Z,13.17
2019-03-27T16:58:32.603Z,13.90
2019-03-27T17:00:34.937Z,17.23
2019-03-27T17:02:37.200Z,11.53
2019-03-27T17:04:39.734Z,16.97
2019-03-27T17:06:41.970Z,14.40
2019-03-27T17:08:44.489Z,17.53
2019-03-27T17:10:47.298Z,14.53
2019-03-27T17:12:49.661Z,16.57
2019-03-27T17:14:51.921Z,21.40
2019-03-27T17:16:54.305Z,16.33
2019-03-27T17:18:58.002Z,18.63
2019-03-27T17:21:00.255Z,15.43
2019-03-27T17:23:02.709Z,13.67
2019-03-27T17:25:05.459Z,14.57
2019-03-27T17:27:07.922Z,15.07
2019-03-27T17:29:10.377Z,14.10
2019-03-27T17:31:13.710Z,14.83
2019-03-27T17:33:16.062Z,16.77
2019-03-27T17:35:18.341Z,13.03
2019-03-27T17:37:20.695Z,11.00
2019-03-27T17:39:22.965Z,14.87
2019-03-27T17:41:28.165Z,12.80
2019-03-27T17:43:29.421Z,12.13
2019-03-27T17:45:31.691Z,14.87
2019-03-27T17:47:34.088Z,12.63
2019-03-27T17:49:36.333Z,14.33
2019-03-27T17:51:38.595Z,12.43
2019-03-27T17:53:41.013Z,13.90
2019-03-27T17:55:43.259Z,14.50
2019-03-27T17:57:45.581Z,16.70
2019-03-27T17:59:47.875Z,15.30
2019-03-27T18:01:50.192Z,14.93
2019-03-27T18:03:52.554Z,20.73
2019-03-27T18:05:54.912Z,14.37
2019-03-27T18:07:57.198Z,17.60
2019-03-27T18:09:59.454Z,17.47
2019-03-27T18:12:01.824Z,19.07
2019-03-27T18:14:04.809Z,17.10
2019-03-27T18:16:07.260Z,17.70
2019-03-27T18:18:09.716Z,19.30
2019-03-27T18:20:12.178Z,14.70
2019-03-27T18:22:14.454Z,19.93
2019-03-27T18:24:16.726Z,17.67
2019-03-27T18:26:19.089Z,14.03
2019-03-27T18:28:21.366Z,15.70
2019-03-27T18:30:23.705Z,15.93
2019-03-27T18:32:25.994Z,17.77
2019-03-27T18:34:28.261Z,18.80
2019-03-27T18:36:30.505Z,13.93
2019-03-27T18:38:33.034Z,13.90
2019-03-27T18:40:35.559Z,13.93
2019-03-27T18:42:37.809Z,16.23
2019-03-27T18:44:40.074Z,17.70
2019-03-27T18:46:44.232Z,22.80
2019-03-27T18:48:46.516Z,13.00
2019-03-27T18:50:48.762Z,14.17
2019-03-27T18:52:51.045Z,16.43
2019-03-27T18:54:53.314Z,17.40
2019-03-27T18:56:55.574Z,15.33
2019-03-27T18:58:58.197Z,18.50
2019-03-27T19:01:00.618Z,18.80
2019-03-27T19:03:02.968Z,17.90
2019-03-27T19:05:06.049Z,18.03
2019-03-27T19:07:08.685Z,15.50
2019-03-27T19:09:11.768Z,14.87
2019-03-27T19:11:14.195Z,16.00
2019-03-27T19:13:16.550Z,17.40
2019-03-27T19:15:18.943Z,16.10
2019-03-27T19:17:21.192Z,16.70
2019-03-27T19:19:23.480Z,16.93
2019-03-27T19:21:25.869Z,20.97
2019-03-27T19:23:28.145Z,20.10
2019-03-27T19:25:30.778Z,17.97
2019-03-27T19:27:33.198Z,21.20
2019-03-27T19:29:35.504Z,15.33
2019-03-27T19:31:37.864Z,21.40
2019-03-27T19:33:40.158Z,18.63
2019-03-27T19:35:42.410Z,19.23
2019-03-27T19:37:44.776Z,15.07
2019-03-27T19:39:49.760Z,23.80
2019-03-27T19:41:52.077Z,24.30
2019-03-27T19:43:54.446Z,19.73
2019-03-27T19:45:57.602Z,16.93
2019-03-27T19:48:00.065Z,20.80
2019-03-27T19:50:03.086Z,18.80
2019-03-27T19:52:05.353Z,16.50
2019-03-27T19:54:10.810Z,20.80
2019-03-27T19:56:17.574Z,17.87
2019-03-27T19:58:20.065Z,21.27
2019-03-27T20:00:23.903Z,23.23
2019-03-27T20:02:26.245Z,19.43
2019-03-27T20:04:28.662Z,23.80
2019-03-27T20:06:31.053Z,24.97
2019-03-27T20:08:33.313Z,21.93
2019-03-27T20:10:35.562Z,25.07
2019-03-27T20:12:38.815Z,20.33
2019-03-27T20:14:42.622Z,19.43
2019-03-27T20:16:45.232Z,25.10
2019-03-27T20:18:47.825Z,22.70
2019-03-27T20:20:50.224Z,21.80
2019-03-27T20:22:52.477Z,21.47
2019-03-27T20:24:54.862Z,21.90
2019-03-27T20:26:57.121Z,23.07
2019-03-27T20:28:59.466Z,25.93
2019-03-27T20:31:01.745Z,21.20
2019-03-27T20:33:04.097Z,23.20
2019-03-27T20:35:06.807Z,21.37
2019-03-27T20:37:09.344Z,23.40
2019-03-27T20:39:11.597Z,25.77
2019-03-27T20:41:13.873Z,27.50
2019-03-27T20:43:16.121Z,19.90
2019-03-27T20:45:18.457Z,27.03
2019-03-27T20:47:21.057Z,24.90
2019-03-27T20:49:23.319Z,22.40
2019-03-27T20:51:25.577Z,29.53
2019-03-27T20:53:28.326Z,23.53
2019-03-27T20:55:31.130Z,27.57
2019-03-27T20:57:33.737Z,25.37
2019-03-27T20:59:36.451Z,22.43
2019-03-27T21:01:40.545Z,32.37
2019-03-27T21:03:42.851Z,23.90
2019-03-27T21:05:45.643Z,25.00
2019-03-27T21:07:48.229Z,32.67
2019-03-27T21:09:53.204Z,28.33
2019-03-27T21:11:56.202Z,31.93
2019-03-27T21:13:58.705Z,45.27
2019-03-27T21:16:00.993Z,30.17
2019-03-27T21:18:03.612Z,29.57
2019-03-27T21:20:08.063Z,28.57
2019-03-27T21:22:10.310Z,24.17
2019-03-27T21:24:12.625Z,26.40
2019-03-27T21:26:14.957Z,25.30
2019-03-27T21:28:17.230Z,29.73
2019-03-27T21:30:19.520Z,25.40
2019-03-27T21:32:21.765Z,36.77
2019-03-27T21:34:24.357Z,32.27
2019-03-27T21:36:26.606Z,26.63
2019-03-27T21:38:28.857Z,39.67
2019-03-27T21:40:31.438Z,30.63
2019-03-27T21:42:33.697Z,29.73
2019-03-27T21:44:35.946Z,38.73
2019-03-27T21:46:38.209Z,31.57
2019-03-27T21:48:40.575Z,34.90
2019-03-27T21:50:42.929Z,27.47
2019-03-27T21:52:45.217Z,26.13
2019-03-27T21:54:48.550Z,28.60
2019-03-27T21:56:50.814Z,29.10
2019-03-27T21:58:53.133Z,40.07
2019-03-27T22:00:55.621Z,32.23
2019-03-27T22:02:58.189Z,32.30
2019-03-27T22:05:00.415Z,47.47
2019-03-27T22:07:02.914Z,37.10
2019-03-27T22:09:06.205Z,36.80
2019-03-27T22:11:08.450Z,28.10
2019-03-27T22:13:11.343Z,40.50
2019-03-27T22:15:13.789Z,30.83
2019-03-27T22:17:16.199Z,34.97
2019-03-27T22:19:18.479Z,39.27
2019-03-27T22:21:20.940Z,34.33
2019-03-27T22:23:23.191Z,34.00
2019-03-27T22:25:35.372Z,40.73
2019-03-27T22:27:29.630Z,31.33
2019-03-27T22:29:31.902Z,34.60
2019-03-27T22:31:34.195Z,34.23
2019-03-27T22:33:36.505Z,37.73
2019-03-27T22:35:39.022Z,42.77
2019-03-27T22:37:41.284Z,42.13
2019-03-27T22:39:43.657Z,63.30
2019-03-27T22:41:46.852Z,37.90
2019-03-27T22:43:49.198Z,30.23
2019-03-27T22:45:51.534Z,39.83
2019-03-27T22:47:53.795Z,41.63
2019-03-27T22:49:56.049Z,42.37
2019-03-27T22:51:58.409Z,40.47
2019-03-27T22:54:00.653Z,46.17
2019-03-27T22:56:02.913Z,40.13
2019-03-27T22:58:05.351Z,47.00
2019-03-27T23:00:08.697Z,41.70
2019-03-27T23:02:11.169Z,39.50
2019-03-27T23:04:13.853Z,42.80
2019-03-27T23:06:16.206Z,37.43
2019-03-27T23:08:18.595Z,39.93
2019-03-27T23:10:20.856Z,31.00
2019-03-27T23:12:23.217Z,33.50
2019-03-27T23:14:25.594Z,36.93
2019-03-27T23:16:27.963Z,37.67
2019-03-27T23:18:30.241Z,37.93
2019-03-27T23:20:32.813Z,46.47
2019-03-27T23:22:35.175Z,35.90
2019-03-27T23:24:37.418Z,38.40
2019-03-27T23:26:39.769Z,35.67
2019-03-27T23:28:42.033Z,38.80
2019-03-27T23:30:44.320Z,42.23
2019-03-27T23:32:46.703Z,34.57
2019-03-27T23:34:48.977Z,34.47
2019-03-27T23:36:51.232Z,33.70
2019-03-27T23:38:53.499Z,40.67
2019-03-27T23:40:56.442Z,36.20
2019-03-27T23:42:59.062Z,37.17
2019-03-27T23:45:01.780Z,34.53
2019-03-27T23:47:04.053Z,33.50
2019-03-27T23:49:06.429Z,35.33
2019-03-27T23:51:08.677Z,29.50
2019-03-27T23:53:11.056Z,44.10
2019-03-27T23:55:13.423Z,34.43
2019-03-27T23:57:15.692Z,31.27
2019-03-27T23:59:18.097Z,30.27
